Ana Sayfa
METAR-TAF:

METAR-TAF

Havaalanları :

Palembang, Endonezya

Enlem: 02-54S, Boylam: 104-42E, yükseklik: 10 m

METAR: eksik

Saat: 14:17 (07:17 UTC)

Tahmin

Rapor saat 23:00 UTC de 8 saat ve 17 dakika önce yapıldı.
Ayın 29'si saat 00 UTC'den ayın 29'si saat 24 UTC'ye kadar geçerli Tahmin
Rüzgar kuzey/kuzeydoğudan 8 kt
Görüş mesafesi 10 km veya daha fazla
1000 ft yükseklikte parçalı bulutlu
Geçici
ayın 29'si saat 06 UTC'den ayın 29'si saat 10 UTC'ye kadar
Görüş mesafesi: 3000 m
1000 ft yükseklikte az bulutlu, Kümülonimbus.
1000 ft yükseklikte parçalı çok bulutlu
yağmur
Geçici
ayın 29'si saat 20 UTC'den ayın 29'si saat 24 UTC'ye kadar
Görüş mesafesi: 3000 m
Pus

TAF: WIPP 282300Z 2900/2924 02008KT 9999 SCT010 TEMPO 2906/2910 3000 RA FEW010CB BKN010 TEMPO 2920/2924 3000 BR

4.000'den fazla havaalanı için hava durumu gözlemleri ve tahminleri (METAR ve TAF raporları).

Kullanılabilir istasyonlar harita üzerinde sarı ve kırmızı noktalarla gösterilir.

İstasyonun adını görmek için fareyi noktanın üzerinde gezdirin.

Sonrasında hava gözlem ve tahminlerini görmek için tıklayın.

Haritayı değiştirmek için: yaklaştırmak için siyah artı işaretli yeşil düğmeye ve uzaklaştırmak için de eksi işaretli düğmeye hızla tıklayın; bitişik haritalar için yeşil okları kullanın.


METAR-TAF: